Etusivu
METAR-TAF:

METAR-TAF

Lentoasemat :

Curaçao, Alankomaiden Antillit

Leveyspiiri: 12-12N, Pituuspiiri: 068-58W, korkeus merenpinnasta: 9 m

Tämänhetkinen sää

Tämä raportti tehtiin 58 minuuttia sitten, kello 20.00 UTC
Tuuli 12 kn idästä
Lämpötila 32°C
Kosteus 71%
Ilmanpaine 1010 hPa
Näkyvyys 10 km tai enemmän
Muutamia pilviä 2000 ft:n korkeudessa

METAR: TNCC 222000Z 09012KT 9999 FEW020 32/26 Q1010 NOSIG

Aika: 16:58 (20:58 UTC)

Sääennuste

Tämä raportti tehtiin 3 tuntia ja 43 minuuttia sitten, kello 17.15 UTC
Ennuste voimassa 22. päivästä klo 18 UTC - 23. päivään klo 18 UTC
Tuuli 15 kn idästä
Näkyvyys 10 km tai enemmän
Hajanaisia pilviä 2500 ft:n korkeudessa
Ajoittain
23. päivästä klo 04 UTC - 23. päivään klo 16 UTC
Näkyvyys: 4000 m
Muutamia pilviä 1200 ft:n korkeudessa
Hajonneita pilviä 1500 ft:n korkeudessa
vesikuuroja,

TAF: TNCC 221715Z 2218/2318 10015KT 9999 SCT025 TEMPO 2304/2316 4000 SHRA FEW012 BKN015

Säähavainnot ja -ennusteet yli 4000 lentoasemalta (METAR- ja TAF-raportit).

Käytössä olevat sääasemat on merkitty karttaan keltaisilla ja punaisilla pisteillä.

Aseta hiiri pisteen päälle nähdäksesi sääaseman nimen.

Klikkaa sitten nähdäksesi säähavainnot ja -ennusteet.

Kartan vaihtaminen: klikkaa mustalla rastilla varustettuja vihreitä pisteitä, niin voit zoomata sisään; viivalla varustettua vihreää pistettä, niin voit zoomata ulos tai vihreitä nuolia, niin pääset viereisille kartoille.


METAR-TAF: